createdAt,value
2023-07-08T00:01:17.987Z,14.10
2023-07-08T00:03:52.367Z,9.90
2023-07-08T00:06:28.030Z,13.00
2023-07-08T00:09:00.307Z,16.40
2023-07-08T00:11:32.983Z,10.40
2023-07-08T00:14:05.222Z,9.60
2023-07-08T00:16:37.869Z,8.30
2023-07-08T00:19:13.291Z,12.40
2023-07-08T00:21:45.425Z,10.70
2023-07-08T00:24:17.842Z,8.70
2023-07-08T00:26:50.153Z,12.20
2023-07-08T00:29:22.194Z,17.50
2023-07-08T00:31:54.263Z,14.20
2023-07-08T00:34:26.351Z,12.90
2023-07-08T00:39:29.530Z,15.80
2023-07-08T00:42:02.705Z,12.50
2023-07-08T00:44:36.466Z,9.30
2023-07-08T00:47:12.815Z,15.00
2023-07-08T00:49:49.056Z,14.10
2023-07-08T00:52:27.185Z,10.00
2023-07-08T00:55:04.291Z,11.70
2023-07-08T00:57:41.353Z,9.40
2023-07-08T01:00:19.001Z,12.50
2023-07-08T01:02:57.336Z,17.10
2023-07-08T01:05:32.057Z,16.40
2023-07-08T01:08:07.767Z,11.50
2023-07-08T01:10:48.382Z,12.80
2023-07-08T01:13:23.416Z,14.00
2023-07-08T01:15:56.340Z,20.20
2023-07-08T01:18:28.834Z,14.50
2023-07-08T01:21:07.653Z,18.40
2023-07-08T01:23:40.084Z,14.10
2023-07-08T01:26:12.216Z,13.40
2023-07-08T01:28:44.786Z,14.20
2023-07-08T01:31:16.976Z,12.80
2023-07-08T01:33:49.429Z,12.80
2023-07-08T01:36:22.473Z,15.80
2023-07-08T01:38:55.206Z,10.80
2023-07-08T01:41:27.512Z,9.90
2023-07-08T01:44:00.620Z,9.30
2023-07-08T01:46:33.802Z,10.60
2023-07-08T01:49:05.975Z,10.10
2023-07-08T01:51:38.363Z,12.50
2023-07-08T01:54:10.446Z,13.20
2023-07-08T01:56:44.429Z,18.00
2023-07-08T01:59:16.501Z,17.10
2023-07-08T02:04:20.630Z,16.30
2023-07-08T02:06:56.942Z,8.80
2023-07-08T02:09:29.009Z,12.10
2023-07-08T02:14:31.798Z,10.50
2023-07-08T02:17:06.899Z,11.60
2023-07-08T02:19:39.131Z,11.20
2023-07-08T02:22:11.457Z,11.10
2023-07-08T02:24:43.705Z,10.90
2023-07-08T02:29:46.517Z,14.50
2023-07-08T02:32:18.535Z,13.70
2023-07-08T02:37:21.412Z,15.60
2023-07-08T02:39:53.516Z,15.20
2023-07-08T02:42:26.111Z,16.90
2023-07-08T02:44:58.105Z,16.50
2023-07-08T02:47:30.375Z,12.10
2023-07-08T02:50:02.583Z,11.80
2023-07-08T02:55:06.066Z,13.00
2023-07-08T02:57:38.313Z,13.40
2023-07-08T03:00:16.132Z,12.20
2023-07-08T03:02:48.878Z,11.30
2023-07-08T03:05:21.316Z,13.40
2023-07-08T03:07:53.850Z,17.30
2023-07-08T03:10:25.858Z,11.00
2023-07-08T03:15:30.326Z,15.20
2023-07-08T03:18:04.816Z,12.30
2023-07-08T03:20:39.005Z,11.80
2023-07-08T03:23:11.653Z,9.80
2023-07-08T03:25:45.125Z,14.30
2023-07-08T03:28:19.923Z,8.80
2023-07-08T03:30:55.860Z,12.60
2023-07-08T03:33:29.349Z,9.90
2023-07-08T03:36:03.417Z,9.60
2023-07-08T03:38:37.750Z,10.10
2023-07-08T03:41:10.937Z,11.50
2023-07-08T03:43:43.086Z,7.70
2023-07-08T03:46:18.978Z,9.20
2023-07-08T03:48:52.277Z,16.90
2023-07-08T03:51:28.330Z,12.10
2023-07-08T03:54:00.801Z,11.90
2023-07-08T03:56:34.451Z,13.40
2023-07-08T03:59:07.759Z,15.80
2023-07-08T04:01:42.532Z,15.00
2023-07-08T04:04:17.594Z,10.70
2023-07-08T04:06:52.717Z,11.40
2023-07-08T04:09:25.178Z,15.00
2023-07-08T04:11:57.449Z,14.10
2023-07-08T04:14:29.595Z,12.60
2023-07-08T04:17:02.979Z,11.50
2023-07-08T04:19:35.318Z,10.10
2023-07-08T04:22:08.437Z,13.40
2023-07-08T04:24:41.274Z,11.00
2023-07-08T04:27:17.428Z,14.40
2023-07-08T04:29:50.817Z,10.10
2023-07-08T04:32:25.987Z,10.40
2023-07-08T04:34:58.422Z,8.70
2023-07-08T04:37:30.503Z,13.80
2023-07-08T04:40:02.758Z,9.90
2023-07-08T04:42:36.842Z,10.90
2023-07-08T04:45:12.146Z,9.30
2023-07-08T04:47:44.739Z,11.10
2023-07-08T04:50:16.922Z,15.60
2023-07-08T04:52:48.919Z,14.00
2023-07-08T04:55:24.510Z,15.90
2023-07-08T04:57:56.520Z,15.10
2023-07-08T05:00:28.831Z,11.70
2023-07-08T05:03:01.278Z,13.10
2023-07-08T05:05:33.618Z,14.00
2023-07-08T05:08:06.302Z,14.40
2023-07-08T05:10:38.718Z,14.50
2023-07-08T05:13:10.852Z,18.10
2023-07-08T05:15:43.041Z,12.90
2023-07-08T05:18:15.121Z,12.90
2023-07-08T05:20:55.993Z,16.30
2023-07-08T05:23:28.259Z,17.20
2023-07-08T05:26:03.208Z,14.80
2023-07-08T05:28:35.327Z,17.90
2023-07-08T05:31:07.663Z,16.00
2023-07-08T05:33:40.992Z,15.40
2023-07-08T05:36:13.157Z,11.40
2023-07-08T05:38:45.198Z,12.60
2023-07-08T05:41:17.522Z,14.50
2023-07-08T05:43:49.666Z,13.00
2023-07-08T05:46:21.775Z,13.70
2023-07-08T05:48:53.845Z,15.50
2023-07-08T05:51:25.962Z,11.20
2023-07-08T05:53:58.262Z,12.80
2023-07-08T05:56:31.866Z,14.40
2023-07-08T05:59:04.001Z,14.10
2023-07-08T06:01:36.518Z,15.10
2023-07-08T06:04:08.905Z,14.60
2023-07-08T06:06:41.012Z,15.30
2023-07-08T06:09:13.014Z,13.90
2023-07-08T06:11:45.181Z,12.30
2023-07-08T06:14:17.150Z,14.80
2023-07-08T06:16:49.569Z,11.50
2023-07-08T06:19:21.539Z,14.10
2023-07-08T06:21:53.630Z,15.00
2023-07-08T06:24:25.693Z,13.90
2023-07-08T06:26:59.644Z,17.80
2023-07-08T06:29:32.243Z,21.80
2023-07-08T06:32:04.729Z,16.20
2023-07-08T06:34:36.776Z,21.70
2023-07-08T06:37:10.323Z,14.40
2023-07-08T06:39:42.756Z,19.60
2023-07-08T06:42:14.910Z,15.90
2023-07-08T06:44:54.150Z,18.80
2023-07-08T06:47:26.833Z,20.30
2023-07-08T06:49:59.872Z,16.50
2023-07-08T06:52:35.234Z,17.90
2023-07-08T06:55:10.379Z,18.20
2023-07-08T06:57:42.545Z,17.60
2023-07-08T07:00:16.363Z,16.40
2023-07-08T07:02:48.592Z,22.50
2023-07-08T07:05:23.442Z,18.50
2023-07-08T07:07:55.930Z,12.50
2023-07-08T07:10:27.995Z,15.50
2023-07-08T07:13:00.460Z,15.90
2023-07-08T07:15:33.579Z,18.20
2023-07-08T07:18:06.175Z,14.00
2023-07-08T07:20:40.092Z,19.60
2023-07-08T07:23:12.348Z,33.00
2023-07-08T07:25:45.410Z,15.60
2023-07-08T07:28:18.665Z,14.70
2023-07-08T07:30:57.848Z,11.80
2023-07-08T07:33:30.070Z,11.70
2023-07-08T07:36:02.568Z,11.70
2023-07-08T07:38:36.964Z,8.20
2023-07-08T07:41:11.365Z,7.50
2023-07-08T07:43:43.421Z,6.50
2023-07-08T07:46:15.775Z,7.30
2023-07-08T07:48:47.954Z,4.70
2023-07-08T07:51:19.940Z,4.80
2023-07-08T07:53:51.969Z,7.10
2023-07-08T07:56:26.203Z,4.70
2023-07-08T07:58:58.566Z,8.60
2023-07-08T08:01:30.945Z,6.10
2023-07-08T08:04:03.216Z,4.10
2023-07-08T08:06:35.377Z,3.60
2023-07-08T08:09:08.406Z,5.40
2023-07-08T08:11:40.308Z,5.00
2023-07-08T08:14:12.625Z,10.40
2023-07-08T08:16:44.780Z,7.20
2023-07-08T08:19:16.984Z,9.30
2023-07-08T08:22:04.073Z,6.40
2023-07-08T08:24:37.041Z,4.60
2023-07-08T08:27:09.540Z,2.60
2023-07-08T08:29:42.487Z,3.50
2023-07-08T08:32:16.448Z,6.80
2023-07-08T08:34:48.529Z,3.70
2023-07-08T08:37:20.611Z,2.20
2023-07-08T08:39:52.619Z,4.70
2023-07-08T08:42:41.882Z,3.80
2023-07-08T08:45:19.897Z,4.60
2023-07-08T08:47:56.453Z,11.80
2023-07-08T08:50:38.106Z,5.10
2023-07-08T08:53:15.335Z,2.40
2023-07-08T08:55:51.030Z,3.10
2023-07-08T08:58:35.548Z,2.70
2023-07-08T09:01:13.287Z,2.60
2023-07-08T09:03:54.293Z,2.90
2023-07-08T09:09:06.142Z,3.20
2023-07-08T09:11:54.812Z,3.30
2023-07-08T09:14:30.982Z,3.70
2023-07-08T09:17:16.959Z,2.80
2023-07-08T09:19:59.252Z,4.60
2023-07-08T09:22:37.862Z,2.50
2023-07-08T09:25:26.355Z,4.00
2023-07-08T09:27:58.620Z,2.00
2023-07-08T09:30:31.737Z,3.80
2023-07-08T09:33:09.870Z,5.40
2023-07-08T09:35:48.853Z,3.00
2023-07-08T09:38:24.935Z,2.70
2023-07-08T09:40:57.783Z,2.80
2023-07-08T09:43:37.426Z,2.90
2023-07-08T09:46:16.407Z,4.20
2023-07-08T09:48:48.465Z,3.60
2023-07-08T09:51:21.959Z,3.00
2023-07-08T09:53:54.476Z,2.50
2023-07-08T09:56:29.604Z,3.20
2023-07-08T09:59:01.586Z,4.40
2023-07-08T10:01:34.562Z,2.50
2023-07-08T10:04:07.608Z,7.40
2023-07-08T10:06:39.834Z,8.90
2023-07-08T10:09:21.278Z,7.60
2023-07-08T10:11:58.312Z,6.40
2023-07-08T10:14:35.877Z,3.50
2023-07-08T10:17:13.951Z,5.80
2023-07-08T10:19:46.480Z,2.40
2023-07-08T10:22:38.732Z,3.20
2023-07-08T10:25:20.329Z,3.00
2023-07-08T10:27:59.630Z,2.90
2023-07-08T10:30:42.371Z,3.10
2023-07-08T10:33:37.264Z,2.10
2023-07-08T10:36:23.018Z,4.20
2023-07-08T10:39:08.427Z,3.40
2023-07-08T10:41:50.430Z,3.10
2023-07-08T10:44:29.941Z,5.00
2023-07-08T10:47:15.296Z,2.30
2023-07-08T10:50:01.157Z,3.20
2023-07-08T10:52:50.931Z,2.40
2023-07-08T10:55:34.935Z,3.30
2023-07-08T10:58:42.208Z,4.70
2023-07-08T11:01:29.072Z,3.80
2023-07-08T11:04:17.323Z,5.60
2023-07-08T11:06:55.545Z,3.70
2023-07-08T11:09:37.707Z,4.60
2023-07-08T11:12:24.313Z,3.10
2023-07-08T11:15:03.440Z,2.90
2023-07-08T11:17:45.899Z,4.00
2023-07-08T11:20:24.418Z,3.00
2023-07-08T11:23:05.288Z,5.60
2023-07-08T11:25:38.066Z,2.20
2023-07-08T11:28:17.536Z,4.40
2023-07-08T11:30:52.420Z,2.50
2023-07-08T11:33:28.405Z,3.80
2023-07-08T11:36:03.156Z,1.90
2023-07-08T11:38:37.251Z,2.00
2023-07-08T11:41:16.364Z,2.30
2023-07-08T11:43:53.089Z,3.20
2023-07-08T11:46:29.942Z,6.40
2023-07-08T11:49:06.482Z,2.50
2023-07-08T11:51:42.149Z,4.30
2023-07-08T11:54:31.856Z,2.30
2023-07-08T11:57:10.454Z,3.10
2023-07-08T11:59:44.015Z,2.30
2023-07-08T12:02:18.928Z,4.50
2023-07-08T12:05:02.025Z,2.00
2023-07-08T12:07:39.379Z,2.90
2023-07-08T12:10:18.052Z,2.20
2023-07-08T12:12:50.730Z,4.60
2023-07-08T12:15:26.551Z,2.40
2023-07-08T12:18:01.808Z,3.50
2023-07-08T12:20:36.763Z,1.90
2023-07-08T12:23:14.035Z,1.90
2023-07-08T12:25:46.877Z,3.80
2023-07-08T12:28:24.789Z,3.00
2023-07-08T12:31:00.864Z,3.20
2023-07-08T12:33:35.348Z,2.20
2023-07-08T12:36:08.159Z,1.80
2023-07-08T12:38:42.920Z,6.90
2023-07-08T12:41:18.178Z,1.60
2023-07-08T12:43:50.601Z,5.20
2023-07-08T12:46:24.716Z,3.10
2023-07-08T12:48:56.814Z,2.80
2023-07-08T12:51:31.028Z,3.40
2023-07-08T12:54:03.151Z,2.20
2023-07-08T12:56:37.091Z,3.80
2023-07-08T12:59:10.190Z,2.40
2023-07-08T13:01:43.893Z,2.90
2023-07-08T13:04:17.364Z,2.60
2023-07-08T13:06:50.965Z,6.10
2023-07-08T13:09:39.449Z,2.00
2023-07-08T13:12:20.948Z,3.40
2023-07-08T13:14:55.239Z,2.90
2023-07-08T13:17:38.936Z,7.40
2023-07-08T13:20:22.490Z,2.80
2023-07-08T13:23:03.528Z,4.50
2023-07-08T13:25:43.661Z,5.40
2023-07-08T13:28:25.988Z,4.00
2023-07-08T13:31:01.098Z,3.60
2023-07-08T13:33:37.247Z,11.20
2023-07-08T13:36:16.699Z,3.20
2023-07-08T13:38:50.946Z,5.40
2023-07-08T13:41:25.598Z,4.40
2023-07-08T13:44:01.034Z,5.70
2023-07-08T13:46:41.026Z,3.60
2023-07-08T13:49:23.968Z,5.10
2023-07-08T13:52:09.669Z,2.40
2023-07-08T13:54:49.473Z,2.10
2023-07-08T13:57:25.429Z,3.20
2023-07-08T13:59:57.850Z,4.30
2023-07-08T14:02:35.194Z,5.30
2023-07-08T14:05:14.821Z,2.80
2023-07-08T14:07:55.119Z,3.00
2023-07-08T14:10:30.972Z,2.10
2023-07-08T14:13:04.364Z,3.00
2023-07-08T14:15:37.111Z,5.30
2023-07-08T14:18:11.571Z,3.20
2023-07-08T14:20:43.742Z,8.80
2023-07-08T14:23:18.973Z,6.00
2023-07-08T14:26:00.719Z,2.30
2023-07-08T14:31:25.857Z,2.00
2023-07-08T14:34:16.637Z,2.90
2023-07-08T14:36:52.531Z,4.10
2023-07-08T14:39:32.400Z,3.80
2023-07-08T14:42:32.212Z,5.20
2023-07-08T14:45:23.592Z,3.30
2023-07-08T14:48:01.977Z,3.30
2023-07-08T14:50:43.107Z,2.50
2023-07-08T14:53:31.648Z,3.10
2023-07-08T14:56:18.894Z,4.10
2023-07-08T14:58:57.860Z,5.80
2023-07-08T15:01:34.461Z,2.40
2023-07-08T15:04:16.275Z,2.30
2023-07-08T15:06:52.991Z,2.40
2023-07-08T15:09:37.132Z,2.40
2023-07-08T15:12:15.173Z,2.50
2023-07-08T15:14:47.363Z,2.80
2023-07-08T15:17:20.049Z,2.90
2023-07-08T15:19:53.216Z,2.50
2023-07-08T15:22:25.535Z,3.60
2023-07-08T15:24:57.975Z,5.70
2023-07-08T15:27:30.129Z,2.60
2023-07-08T15:30:02.474Z,3.80
2023-07-08T15:35:17.562Z,4.10
2023-07-08T15:37:50.271Z,3.90
2023-07-08T15:40:25.079Z,6.70
2023-07-08T15:43:00.616Z,3.90
2023-07-08T15:45:36.247Z,2.80
2023-07-08T15:48:11.523Z,2.40
2023-07-08T15:50:44.067Z,6.10
2023-07-08T15:53:18.238Z,3.50
2023-07-08T15:55:51.005Z,3.40
2023-07-08T15:58:30.851Z,2.10
2023-07-08T16:01:05.198Z,2.70
2023-07-08T16:03:40.583Z,2.90
2023-07-08T16:06:12.795Z,14.60
2023-07-08T16:08:45.377Z,4.30
2023-07-08T16:11:20.789Z,3.50
2023-07-08T16:13:53.440Z,3.60
2023-07-08T16:16:27.284Z,3.50
2023-07-08T16:18:59.686Z,2.10
2023-07-08T16:21:31.685Z,2.20
2023-07-08T16:24:04.854Z,2.20
2023-07-08T16:26:38.518Z,2.70
2023-07-08T16:29:16.367Z,6.50
2023-07-08T16:31:49.282Z,3.70
2023-07-08T16:34:51.424Z,4.40
2023-07-08T16:37:36.102Z,3.00
2023-07-08T16:40:32.604Z,5.00
2023-07-08T16:43:13.620Z,4.50
2023-07-08T16:46:04.565Z,3.40
2023-07-08T16:48:53.428Z,3.70
2023-07-08T16:51:32.271Z,3.60
2023-07-08T16:54:16.701Z,4.20
2023-07-08T16:57:22.368Z,3.60
2023-07-08T17:00:08.961Z,2.30
2023-07-08T17:03:11.372Z,3.00
2023-07-08T17:05:58.925Z,7.50
2023-07-08T17:08:32.211Z,2.90
2023-07-08T17:11:08.812Z,3.70
2023-07-08T17:13:55.059Z,2.60
2023-07-08T17:16:37.945Z,3.40
2023-07-08T17:19:16.783Z,2.30
2023-07-08T17:21:51.821Z,2.20
2023-07-08T17:24:31.992Z,5.40
2023-07-08T17:27:04.421Z,3.70
2023-07-08T17:29:36.738Z,3.10
2023-07-08T17:32:12.965Z,2.80
2023-07-08T17:34:45.161Z,7.10
2023-07-08T17:37:17.383Z,6.80
2023-07-08T17:39:49.716Z,2.50
2023-07-08T17:42:21.934Z,3.70
2023-07-08T17:44:54.113Z,5.40
2023-07-08T17:47:26.779Z,3.80
2023-07-08T17:50:00.888Z,6.50
2023-07-08T17:52:34.164Z,25.10
2023-07-08T17:55:06.813Z,12.60
2023-07-08T17:57:39.763Z,18.00
2023-07-08T18:00:18.608Z,13.40
2023-07-08T18:02:51.825Z,6.80
2023-07-08T18:05:26.104Z,4.70
2023-07-08T18:07:58.302Z,6.20
2023-07-08T18:10:36.784Z,2.80
2023-07-08T18:13:22.377Z,5.40
2023-07-08T18:16:22.674Z,15.00
2023-07-08T18:19:13.338Z,7.30
2023-07-08T18:25:58.629Z,5.60
2023-07-08T18:28:43.021Z,20.80
2023-07-08T18:31:32.408Z,5.70
2023-07-08T18:34:10.473Z,3.40
2023-07-08T18:36:47.239Z,15.60
2023-07-08T18:39:20.193Z,16.50
2023-07-08T18:41:52.796Z,7.60
2023-07-08T18:44:30.032Z,17.90
2023-07-08T18:47:05.199Z,6.40
2023-07-08T18:49:37.883Z,12.30
2023-07-08T18:52:14.636Z,9.60
2023-07-08T18:54:59.396Z,9.30
2023-07-08T18:57:33.539Z,10.60
2023-07-08T19:00:22.558Z,7.60
2023-07-08T19:05:43.349Z,16.20
2023-07-08T19:08:23.424Z,17.10
2023-07-08T19:11:10.207Z,9.10
2023-07-08T19:13:55.702Z,6.80
2023-07-08T19:16:56.566Z,3.90
2023-07-08T19:19:48.305Z,5.60
2023-07-08T19:22:24.720Z,3.90
2023-07-08T19:25:00.521Z,4.60
2023-07-08T19:27:38.929Z,5.00
2023-07-08T19:30:18.234Z,5.10
2023-07-08T19:32:58.830Z,4.10
2023-07-08T19:35:41.803Z,4.30
2023-07-08T19:38:21.220Z,8.20
2023-07-08T19:41:03.392Z,11.70
2023-07-08T19:43:35.988Z,11.20
2023-07-08T19:46:13.615Z,4.40
2023-07-08T19:48:46.603Z,17.70
2023-07-08T19:51:19.460Z,10.50
2023-07-08T19:53:56.741Z,5.00
2023-07-08T19:56:30.583Z,6.00
2023-07-08T19:59:02.682Z,11.70
2023-07-08T20:01:34.963Z,6.80
2023-07-08T20:04:07.349Z,5.60
2023-07-08T20:06:39.516Z,12.20
2023-07-08T20:09:16.078Z,6.90
2023-07-08T20:11:49.561Z,9.60
2023-07-08T20:14:21.560Z,9.00
2023-07-08T20:16:55.095Z,15.40
2023-07-08T20:19:29.117Z,20.80
2023-07-08T20:22:01.292Z,9.10
2023-07-08T20:24:34.622Z,7.50
2023-07-08T20:27:07.410Z,11.00
2023-07-08T20:29:39.509Z,26.70
2023-07-08T20:32:19.387Z,10.10
2023-07-08T20:34:51.695Z,9.70
2023-07-08T20:37:24.101Z,12.70
2023-07-08T20:39:56.186Z,10.80
2023-07-08T20:42:28.272Z,8.30
2023-07-08T20:45:00.619Z,8.30
2023-07-08T20:47:34.112Z,15.20
2023-07-08T20:50:08.539Z,9.30
2023-07-08T20:52:40.966Z,12.90
2023-07-08T20:55:17.682Z,16.40
2023-07-08T20:57:51.149Z,26.70
2023-07-08T21:00:33.539Z,20.30
2023-07-08T21:03:10.077Z,7.70
2023-07-08T21:05:43.619Z,10.60
2023-07-08T21:08:28.332Z,11.70
2023-07-08T21:11:02.967Z,12.10
2023-07-08T21:13:39.273Z,10.70
2023-07-08T21:16:17.729Z,12.20
2023-07-08T21:18:51.623Z,8.40
2023-07-08T21:21:24.713Z,12.50
2023-07-08T21:23:57.698Z,10.60
2023-07-08T21:26:32.802Z,10.50
2023-07-08T21:29:06.686Z,11.30
2023-07-08T21:31:40.067Z,13.00
2023-07-08T21:34:13.617Z,9.60
2023-07-08T21:36:48.214Z,9.30
2023-07-08T21:39:32.002Z,10.20
2023-07-08T21:42:04.337Z,9.00
2023-07-08T21:44:36.484Z,15.40
2023-07-08T21:47:09.676Z,9.20
2023-07-08T21:49:41.734Z,11.70
2023-07-08T21:52:14.260Z,11.00
2023-07-08T21:54:46.357Z,9.70
2023-07-08T21:57:18.399Z,12.50
2023-07-08T21:59:50.422Z,13.30
2023-07-08T22:02:22.703Z,11.50
2023-07-08T22:04:54.931Z,10.70
2023-07-08T22:07:27.059Z,15.00
2023-07-08T22:09:59.418Z,11.90
2023-07-08T22:12:33.051Z,14.50
2023-07-08T22:15:05.427Z,13.00
2023-07-08T22:17:37.651Z,10.50
2023-07-08T22:20:12.538Z,11.90
2023-07-08T22:22:44.817Z,12.80
2023-07-08T22:25:24.817Z,13.80
2023-07-08T22:27:57.137Z,10.40
2023-07-08T22:30:29.136Z,12.80
2023-07-08T22:33:01.769Z,14.30
2023-07-08T22:35:34.183Z,11.10
2023-07-08T22:38:06.321Z,9.60
2023-07-08T22:40:41.991Z,12.60
2023-07-08T22:43:19.699Z,13.00
2023-07-08T22:45:51.885Z,13.30
2023-07-08T22:48:26.209Z,12.00
2023-07-08T22:51:03.217Z,12.40
2023-07-08T22:53:38.205Z,9.30
2023-07-08T22:56:17.718Z,11.20
2023-07-08T22:58:49.917Z,9.60
2023-07-08T23:01:22.970Z,11.80
2023-07-08T23:03:55.514Z,11.80
2023-07-08T23:06:28.984Z,9.70
2023-07-08T23:09:01.180Z,9.40
2023-07-08T23:11:33.301Z,9.20
2023-07-08T23:14:05.535Z,10.90
2023-07-08T23:16:38.294Z,10.80
2023-07-08T23:19:13.333Z,12.90
2023-07-08T23:21:45.474Z,14.40
2023-07-08T23:24:17.616Z,11.80
2023-07-08T23:26:49.729Z,10.40
2023-07-08T23:29:24.939Z,13.90
2023-07-08T23:31:58.386Z,10.90
2023-07-08T23:34:30.861Z,9.10
2023-07-08T23:37:04.710Z,9.80
2023-07-08T23:39:36.868Z,12.80
2023-07-08T23:42:16.064Z,10.50
2023-07-08T23:44:48.350Z,11.60
2023-07-08T23:47:24.312Z,10.70
2023-07-08T23:49:56.658Z,11.00
2023-07-08T23:52:28.681Z,10.30
2023-07-08T23:55:00.798Z,9.10
2023-07-08T23:57:32.992Z,14.10
